sensor_id;sensor_type;location;lat;lon;timestamp;pressure;altitude;pressure_sealevel;temperature;humidity
31082;BME280;17737;52.586;13.284;2023-03-23T00:00:12;100116.22;;;12.13;64.66
31082;BME280;17737;52.586;13.284;2023-03-23T00:02:40;100120.13;;;12.11;64.45
31082;BME280;17737;52.586;13.284;2023-03-23T00:05:09;100111.78;;;12.05;64.87
31082;BME280;17737;52.586;13.284;2023-03-23T00:07:36;100107.63;;;12.03;64.75
31082;BME280;17737;52.586;13.284;2023-03-23T00:10:05;100106.78;;;12.02;64.87
31082;BME280;17737;52.586;13.284;2023-03-23T00:12:32;100101.72;;;11.93;65.41
31082;BME280;17737;52.586;13.284;2023-03-23T00:15:00;100107.16;;;11.99;64.72
31082;BME280;17737;52.586;13.284;2023-03-23T00:17:27;100116.38;;;12.05;64.41
31082;BME280;17737;52.586;13.284;2023-03-23T00:19:55;100106.31;;;11.99;64.82
31082;BME280;17737;52.586;13.284;2023-03-23T00:22:22;100107.16;;;11.99;64.76
31082;BME280;17737;52.586;13.284;2023-03-23T00:24:50;100104.47;;;11.99;64.77
31082;BME280;17737;52.586;13.284;2023-03-23T00:27:19;100102.53;;;11.93;64.88
31082;BME280;17737;52.586;13.284;2023-03-23T00:29:48;100099.41;;;11.90;65.27
31082;BME280;17737;52.586;13.284;2023-03-23T00:32:18;100088.78;;;11.88;65.10
31082;BME280;17737;52.586;13.284;2023-03-23T00:34:46;100094.94;;;11.82;65.41
31082;BME280;17737;52.586;13.284;2023-03-23T00:37:15;100088.72;;;11.82;65.37
31082;BME280;17737;52.586;13.284;2023-03-23T00:39:43;100086.22;;;11.80;65.40
31082;BME280;17737;52.586;13.284;2023-03-23T00:42:12;100075.34;;;11.74;65.85
31082;BME280;17737;52.586;13.284;2023-03-23T00:44:42;100070.59;;;11.76;65.64
31082;BME280;17737;52.586;13.284;2023-03-23T00:47:10;100075.16;;;11.75;65.72
31082;BME280;17737;52.586;13.284;2023-03-23T00:49:38;100069.03;;;11.67;65.97
31082;BME280;17737;52.586;13.284;2023-03-23T00:52:07;100074.16;;;11.62;66.13
31082;BME280;17737;52.586;13.284;2023-03-23T00:54:34;100067.09;;;11.61;66.63
31082;BME280;17737;52.586;13.284;2023-03-23T00:57:03;100055.38;;;11.54;66.93
31082;BME280;17737;52.586;13.284;2023-03-23T00:59:30;100048.94;;;11.55;67.24
31082;BME280;17737;52.586;13.284;2023-03-23T01:01:58;100038.28;;;11.47;67.23
31082;BME280;17737;52.586;13.284;2023-03-23T01:04:25;100051.44;;;11.35;67.69
31082;BME280;17737;52.586;13.284;2023-03-23T01:06:54;100047.84;;;11.28;67.62
31082;BME280;17737;52.586;13.284;2023-03-23T01:09:21;100059.06;;;11.32;67.61
31082;BME280;17737;52.586;13.284;2023-03-23T01:11:50;100057.06;;;11.19;68.21
31082;BME280;17737;52.586;13.284;2023-03-23T01:14:18;100054.53;;;11.18;68.37
31082;BME280;17737;52.586;13.284;2023-03-23T01:16:46;100051.53;;;11.27;68.19
31082;BME280;17737;52.586;13.284;2023-03-23T01:19:14;100045.34;;;11.27;68.18
31082;BME280;17737;52.586;13.284;2023-03-23T01:21:41;100037.97;;;11.21;68.90
31082;BME280;17737;52.586;13.284;2023-03-23T01:24:08;100037.84;;;11.08;69.38
31082;BME280;17737;52.586;13.284;2023-03-23T01:26:35;100037.94;;;11.00;69.70
31082;BME280;17737;52.586;13.284;2023-03-23T01:29:03;100036.91;;;11.01;69.47
31082;BME280;17737;52.586;13.284;2023-03-23T01:31:30;100036.78;;;11.09;69.30
31082;BME280;17737;52.586;13.284;2023-03-23T01:33:57;100035.41;;;11.13;68.37
31082;BME280;17737;52.586;13.284;2023-03-23T01:36:27;100031.47;;;11.15;68.73
31082;BME280;17737;52.586;13.284;2023-03-23T01:38:58;100039.47;;;11.23;67.97
31082;BME280;17737;52.586;13.284;2023-03-23T01:41:28;100041.13;;;11.24;67.58
31082;BME280;17737;52.586;13.284;2023-03-23T01:43:58;100036.19;;;11.28;67.94
31082;BME280;17737;52.586;13.284;2023-03-23T01:46:28;100025.59;;;11.26;67.60
31082;BME280;17737;52.586;13.284;2023-03-23T01:49:00;100024.13;;;11.24;67.85
31082;BME280;17737;52.586;13.284;2023-03-23T01:51:44;100018.63;;;11.32;68.14
31082;BME280;17737;52.586;13.284;2023-03-23T01:54:20;100020.63;;;11.44;67.14
31082;BME280;17737;52.586;13.284;2023-03-23T01:56:53;100012.72;;;11.43;67.81
31082;BME280;17737;52.586;13.284;2023-03-23T01:59:24;100005.47;;;11.43;67.36
31082;BME280;17737;52.586;13.284;2023-03-23T02:01:53;100001.53;;;11.46;67.78
31082;BME280;17737;52.586;13.284;2023-03-23T02:04:23;99998.03;;;11.45;67.51
31082;BME280;17737;52.586;13.284;2023-03-23T02:06:53;100004.44;;;11.44;67.22
31082;BME280;17737;52.586;13.284;2023-03-23T02:09:24;100007.13;;;11.44;67.20
31082;BME280;17737;52.586;13.284;2023-03-23T02:11:52;100013.16;;;11.46;66.78
31082;BME280;17737;52.586;13.284;2023-03-23T02:14:21;100008.69;;;11.53;66.84
31082;BME280;17737;52.586;13.284;2023-03-23T02:16:55;100002.91;;;11.56;66.79
31082;BME280;17737;52.586;13.284;2023-03-23T02:19:55;99988.59;;;11.56;66.96
31082;BME280;17737;52.586;13.284;2023-03-23T02:23:08;99995.25;;;11.60;66.63
31082;BME280;17737;52.586;13.284;2023-03-23T02:25:55;99990.91;;;11.59;66.55
31082;BME280;17737;52.586;13.284;2023-03-23T02:32:04;99986.22;;;11.67;66.27
31082;BME280;17737;52.586;13.284;2023-03-23T02:34:41;99996.84;;;11.69;66.05
31082;BME280;17737;52.586;13.284;2023-03-23T02:37:15;99990.19;;;11.71;65.90
31082;BME280;17737;52.586;13.284;2023-03-23T02:39:50;99997.47;;;11.71;65.77
31082;BME280;17737;52.586;13.284;2023-03-23T02:42:25;99999.38;;;11.77;65.93
31082;BME280;17737;52.586;13.284;2023-03-23T02:44:55;99996.03;;;11.75;67.82
31082;BME280;17737;52.586;13.284;2023-03-23T02:47:27;99986.91;;;11.55;69.70
31082;BME280;17737;52.586;13.284;2023-03-23T02:49:58;99971.44;;;11.42;70.40
31082;BME280;17737;52.586;13.284;2023-03-23T02:52:26;99982.41;;;11.41;70.24
31082;BME280;17737;52.586;13.284;2023-03-23T02:54:56;99978.69;;;11.42;70.51
31082;BME280;17737;52.586;13.284;2023-03-23T02:57:25;99982.84;;;11.44;70.31
31082;BME280;17737;52.586;13.284;2023-03-23T02:59:54;99978.28;;;11.45;70.36
31082;BME280;17737;52.586;13.284;2023-03-23T03:02:23;99967.50;;;11.45;70.82
31082;BME280;17737;52.586;13.284;2023-03-23T03:05:00;99974.19;;;11.49;71.21
31082;BME280;17737;52.586;13.284;2023-03-23T03:07:45;99977.09;;;11.47;70.64
31082;BME280;17737;52.586;13.284;2023-03-23T03:10:25;99983.34;;;11.54;69.87
31082;BME280;17737;52.586;13.284;2023-03-23T03:13:04;99979.06;;;11.60;68.97
31082;BME280;17737;52.586;13.284;2023-03-23T03:15:37;99975.00;;;11.64;68.27
31082;BME280;17737;52.586;13.284;2023-03-23T03:18:15;99977.69;;;11.64;68.57
31082;BME280;17737;52.586;13.284;2023-03-23T03:20:48;99973.94;;;11.65;68.08
31082;BME280;17737;52.586;13.284;2023-03-23T03:23:22;99979.78;;;11.68;67.70
31082;BME280;17737;52.586;13.284;2023-03-23T03:25:50;99984.19;;;11.69;67.31
31082;BME280;17737;52.586;13.284;2023-03-23T03:28:20;99985.78;;;11.64;68.06
31082;BME280;17737;52.586;13.284;2023-03-23T03:30:51;99995.53;;;11.44;70.19
31082;BME280;17737;52.586;13.284;2023-03-23T03:33:22;99993.44;;;11.25;71.18
31082;BME280;17737;52.586;13.284;2023-03-23T03:35:54;99992.19;;;11.06;72.90
31082;BME280;17737;52.586;13.284;2023-03-23T03:38:22;99995.88;;;10.84;74.40
31082;BME280;17737;52.586;13.284;2023-03-23T03:40:49;99984.53;;;10.74;75.84
31082;BME280;17737;52.586;13.284;2023-03-23T03:43:16;99992.69;;;10.66;76.37
31082;BME280;17737;52.586;13.284;2023-03-23T03:45:43;99990.97;;;10.58;76.87
31082;BME280;17737;52.586;13.284;2023-03-23T03:48:10;99987.03;;;10.61;77.38
31082;BME280;17737;52.586;13.284;2023-03-23T03:50:38;99978.16;;;10.60;76.77
31082;BME280;17737;52.586;13.284;2023-03-23T03:53:06;99984.34;;;10.61;76.69
31082;BME280;17737;52.586;13.284;2023-03-23T03:55:33;99990.59;;;10.61;76.50
31082;BME280;17737;52.586;13.284;2023-03-23T03:58:04;99980.72;;;10.68;76.01
31082;BME280;17737;52.586;13.284;2023-03-23T04:00:32;99977.97;;;10.62;76.90
31082;BME280;17737;52.586;13.284;2023-03-23T04:02:59;99980.19;;;10.58;76.56
31082;BME280;17737;52.586;13.284;2023-03-23T04:05:26;99972.22;;;10.50;77.38
31082;BME280;17737;52.586;13.284;2023-03-23T04:07:55;99978.41;;;10.51;78.94
31082;BME280;17737;52.586;13.284;2023-03-23T04:10:28;99966.72;;;10.44;80.52
31082;BME280;17737;52.586;13.284;2023-03-23T04:12:57;99955.75;;;10.45;80.89
31082;BME280;17737;52.586;13.284;2023-03-23T04:15:24;99970.25;;;10.59;79.87
31082;BME280;17737;52.586;13.284;2023-03-23T04:17:52;99988.06;;;10.60;79.20
31082;BME280;17737;52.586;13.284;2023-03-23T04:20:19;99984.44;;;10.53;79.33
31082;BME280;17737;52.586;13.284;2023-03-23T04:22:46;99984.44;;;10.53;80.23
31082;BME280;17737;52.586;13.284;2023-03-23T04:25:17;99973.97;;;10.43;81.29
31082;BME280;17737;52.586;13.284;2023-03-23T04:27:47;99956.50;;;10.39;83.04
31082;BME280;17737;52.586;13.284;2023-03-23T04:30:18;99966.09;;;10.42;83.89
31082;BME280;17737;52.586;13.284;2023-03-23T04:32:47;99975.91;;;10.49;82.84
31082;BME280;17737;52.586;13.284;2023-03-23T04:35:19;99976.00;;;10.56;82.91
31082;BME280;17737;52.586;13.284;2023-03-23T04:37:47;99970.69;;;10.62;80.21
31082;BME280;17737;52.586;13.284;2023-03-23T04:40:14;99976.47;;;10.59;81.09
31082;BME280;17737;52.586;13.284;2023-03-23T04:42:42;99985.31;;;10.53;81.06
31082;BME280;17737;52.586;13.284;2023-03-23T04:45:15;99983.00;;;10.50;80.53
31082;BME280;17737;52.586;13.284;2023-03-23T04:47:47;99993.75;;;10.50;81.07
31082;BME280;17737;52.586;13.284;2023-03-23T04:50:20;99995.13;;;10.46;81.50
31082;BME280;17737;52.586;13.284;2023-03-23T04:52:52;100000.53;;;10.46;81.65
31082;BME280;17737;52.586;13.284;2023-03-23T04:55:27;99989.09;;;10.44;81.17
31082;BME280;17737;52.586;13.284;2023-03-23T04:57:58;99998.22;;;10.43;81.88
31082;BME280;17737;52.586;13.284;2023-03-23T05:00:33;100008.59;;;10.46;81.89
31082;BME280;17737;52.586;13.284;2023-03-23T05:03:07;100011.50;;;10.45;83.31
31082;BME280;17737;52.586;13.284;2023-03-23T05:05:38;100010.19;;;10.41;83.73
31082;BME280;17737;52.586;13.284;2023-03-23T05:08:15;100005.06;;;10.31;84.37
31082;BME280;17737;52.586;13.284;2023-03-23T05:10:50;100003.28;;;10.24;85.44
31082;BME280;17737;52.586;13.284;2023-03-23T05:13:21;99999.13;;;10.21;86.55
31082;BME280;17737;52.586;13.284;2023-03-23T05:15:55;99993.28;;;10.18;87.89
31082;BME280;17737;52.586;13.284;2023-03-23T05:18:27;99989.72;;;10.17;88.53
31082;BME280;17737;52.586;13.284;2023-03-23T05:21:03;99988.53;;;10.20;89.21
31082;BME280;17737;52.586;13.284;2023-03-23T05:23:34;99992.06;;;10.20;89.59
31082;BME280;17737;52.586;13.284;2023-03-23T05:26:07;99985.00;;;10.19;88.87
31082;BME280;17737;52.586;13.284;2023-03-23T05:28:41;99981.75;;;10.24;88.46
31082;BME280;17737;52.586;13.284;2023-03-23T05:31:13;99980.56;;;10.26;85.60
31082;BME280;17737;52.586;13.284;2023-03-23T05:33:48;99985.00;;;10.19;85.36
31082;BME280;17737;52.586;13.284;2023-03-23T05:36:22;99998.38;;;10.13;86.82
31082;BME280;17737;52.586;13.284;2023-03-23T05:38:53;100006.78;;;10.10;86.57
31082;BME280;17737;52.586;13.284;2023-03-23T05:41:27;100004.44;;;10.07;86.85
31082;BME280;17737;52.586;13.284;2023-03-23T05:43:57;100009.16;;;10.05;86.44
31082;BME280;17737;52.586;13.284;2023-03-23T05:46:31;100011.94;;;9.97;87.14
31082;BME280;17737;52.586;13.284;2023-03-23T05:48:59;100012.69;;;9.91;88.40
31082;BME280;17737;52.586;13.284;2023-03-23T05:51:29;100003.19;;;9.95;89.11
31082;BME280;17737;52.586;13.284;2023-03-23T05:54:01;100008.97;;;9.92;89.45
31082;BME280;17737;52.586;13.284;2023-03-23T05:56:32;100007.31;;;9.91;89.71
31082;BME280;17737;52.586;13.284;2023-03-23T05:59:03;100004.41;;;9.92;90.03
31082;BME280;17737;52.586;13.284;2023-03-23T06:01:34;100010.03;;;9.83;90.47
31082;BME280;17737;52.586;13.284;2023-03-23T06:04:04;100018.09;;;9.83;90.87
31082;BME280;17737;52.586;13.284;2023-03-23T06:06:36;100007.53;;;9.81;91.30
31082;BME280;17737;52.586;13.284;2023-03-23T06:09:10;100006.72;;;9.81;91.40
31082;BME280;17737;52.586;13.284;2023-03-23T06:11:41;100008.75;;;9.79;91.84
31082;BME280;17737;52.586;13.284;2023-03-23T06:14:13;100016.16;;;9.77;92.27
31082;BME280;17737;52.586;13.284;2023-03-23T06:16:46;100010.66;;;9.70;93.59
31082;BME280;17737;52.586;13.284;2023-03-23T06:19:15;100014.53;;;9.67;93.17
31082;BME280;17737;52.586;13.284;2023-03-23T06:21:46;100018.25;;;9.66;93.92
31082;BME280;17737;52.586;13.284;2023-03-23T06:24:16;100018.44;;;9.65;94.08
31082;BME280;17737;52.586;13.284;2023-03-23T06:26:49;100022.41;;;9.69;95.17
31082;BME280;17737;52.586;13.284;2023-03-23T06:29:22;100027.81;;;9.69;95.04
31082;BME280;17737;52.586;13.284;2023-03-23T06:31:57;100023.44;;;9.68;95.70
31082;BME280;17737;52.586;13.284;2023-03-23T06:34:31;100026.25;;;9.75;94.72
31082;BME280;17737;52.586;13.284;2023-03-23T06:37:07;100028.28;;;9.73;94.46
31082;BME280;17737;52.586;13.284;2023-03-23T06:39:43;100028.41;;;9.79;95.55
31082;BME280;17737;52.586;13.284;2023-03-23T06:42:13;100023.31;;;9.84;94.77
31082;BME280;17737;52.586;13.284;2023-03-23T06:44:42;100025.00;;;9.85;94.87
31082;BME280;17737;52.586;13.284;2023-03-23T06:47:13;100023.44;;;9.91;95.21
31082;BME280;17737;52.586;13.284;2023-03-23T06:49:43;100024.53;;;9.96;98.85
31082;BME280;17737;52.586;13.284;2023-03-23T06:52:18;100022.88;;;9.95;99.30
31082;BME280;17737;52.586;13.284;2023-03-23T06:54:50;100024.53;;;9.96;100.00
31082;BME280;17737;52.586;13.284;2023-03-23T06:57:23;100030.59;;;9.98;99.53
31082;BME280;17737;52.586;13.284;2023-03-23T06:59:57;100034.31;;;9.97;99.94
31082;BME280;17737;52.586;13.284;2023-03-23T07:02:27;100029.59;;;9.99;99.63
31082;BME280;17737;52.586;13.284;2023-03-23T07:04:58;100023.19;;;10.00;99.33
31082;BME280;17737;52.586;13.284;2023-03-23T07:07:29;100021.50;;;9.99;98.55
31082;BME280;17737;52.586;13.284;2023-03-23T07:10:04;99996.38;;;10.07;98.22
31082;BME280;17737;52.586;13.284;2023-03-23T07:12:36;100014.22;;;10.08;97.46
31082;BME280;17737;52.586;13.284;2023-03-23T07:15:08;100025.28;;;10.13;97.36
31082;BME280;17737;52.586;13.284;2023-03-23T07:17:41;100019.91;;;10.13;95.47
31082;BME280;17737;52.586;13.284;2023-03-23T07:20:12;100021.75;;;10.12;95.45
31082;BME280;17737;52.586;13.284;2023-03-23T07:22:43;100020.09;;;10.11;94.73
31082;BME280;17737;52.586;13.284;2023-03-23T07:25:13;100034.84;;;10.15;94.69
31082;BME280;17737;52.586;13.284;2023-03-23T07:27:45;100022.41;;;10.14;94.63
31082;BME280;17737;52.586;13.284;2023-03-23T07:30:16;100004.84;;;10.18;94.91
31082;BME280;17737;52.586;13.284;2023-03-23T07:32:49;100000.78;;;10.22;95.52
31082;BME280;17737;52.586;13.284;2023-03-23T07:35:20;100000.06;;;10.28;94.79
31082;BME280;17737;52.586;13.284;2023-03-23T07:37:50;100005.44;;;10.28;94.99
31082;BME280;17737;52.586;13.284;2023-03-23T07:40:23;99974.03;;;10.35;95.46
31082;BME280;17737;52.586;13.284;2023-03-23T07:42:51;99962.75;;;10.40;95.09
31082;BME280;17737;52.586;13.284;2023-03-23T07:45:24;99962.81;;;10.46;94.46
31082;BME280;17737;52.586;13.284;2023-03-23T07:47:56;99957.78;;;10.58;93.96
31082;BME280;17737;52.586;13.284;2023-03-23T07:50:30;99975.72;;;10.65;93.39
31082;BME280;17737;52.586;13.284;2023-03-23T07:53:03;99976.81;;;10.71;93.43
31082;BME280;17737;52.586;13.284;2023-03-23T07:55:39;99992.44;;;10.75;92.41
31082;BME280;17737;52.586;13.284;2023-03-23T07:58:09;100004.78;;;10.70;92.58
31082;BME280;17737;52.586;13.284;2023-03-23T08:00:52;100004.91;;;10.62;92.90
31082;BME280;17737;52.586;13.284;2023-03-23T08:03:27;100007.59;;;10.62;91.77
31082;BME280;17737;52.586;13.284;2023-03-23T08:05:58;100008.25;;;10.64;92.12
31082;BME280;17737;52.586;13.284;2023-03-23T08:08:28;100014.91;;;10.68;92.01
31082;BME280;17737;52.586;13.284;2023-03-23T08:11:03;100018.06;;;10.71;91.81
31082;BME280;17737;52.586;13.284;2023-03-23T08:13:32;100016.41;;;10.70;92.09
31082;BME280;17737;52.586;13.284;2023-03-23T08:16:04;100019.84;;;10.79;91.88
31082;BME280;17737;52.586;13.284;2023-03-23T08:18:41;100026.69;;;10.81;91.95
31082;BME280;17737;52.586;13.284;2023-03-23T08:21:11;100022.34;;;10.80;91.32
31082;BME280;17737;52.586;13.284;2023-03-23T08:23:41;100019.66;;;10.80;91.86
31082;BME280;17737;52.586;13.284;2023-03-23T08:26:11;99985.91;;;10.84;92.01
31082;BME280;17737;52.586;13.284;2023-03-23T08:28:43;100009.53;;;10.82;91.62
31082;BME280;17737;52.586;13.284;2023-03-23T08:31:15;100033.59;;;10.84;90.39
31082;BME280;17737;52.586;13.284;2023-03-23T08:33:48;100028.19;;;10.84;90.26
31082;BME280;17737;52.586;13.284;2023-03-23T08:36:18;100028.28;;;10.91;90.00
31082;BME280;17737;52.586;13.284;2023-03-23T08:38:50;100025.47;;;11.13;90.14
31082;BME280;17737;52.586;13.284;2023-03-23T08:41:20;100030.53;;;11.23;89.08
31082;BME280;17737;52.586;13.284;2023-03-23T08:43:48;100031.19;;;11.25;88.49
31082;BME280;17737;52.586;13.284;2023-03-23T08:46:19;100025.56;;;11.41;89.20
31082;BME280;17737;52.586;13.284;2023-03-23T08:48:51;100020.34;;;11.39;87.77
31082;BME280;17737;52.586;13.284;2023-03-23T08:51:25;100017.72;;;11.46;87.83
31082;BME280;17737;52.586;13.284;2023-03-23T08:53:55;100024.81;;;11.47;87.97
31082;BME280;17737;52.586;13.284;2023-03-23T08:56:24;100037.50;;;11.53;87.37
31082;BME280;17737;52.586;13.284;2023-03-23T08:58:54;100036.53;;;11.39;87.28
31082;BME280;17737;52.586;13.284;2023-03-23T09:01:23;100047.00;;;11.28;87.01
31082;BME280;17737;52.586;13.284;2023-03-23T09:03:55;100048.69;;;11.29;86.84
31082;BME280;17737;52.586;13.284;2023-03-23T09:06:30;100053.22;;;11.28;86.77
31082;BME280;17737;52.586;13.284;2023-03-23T09:09:00;100054.06;;;11.29;86.71
31082;BME280;17737;52.586;13.284;2023-03-23T09:11:35;100059.72;;;11.34;86.19
31082;BME280;17737;52.586;13.284;2023-03-23T09:14:07;100059.81;;;11.40;85.88
31082;BME280;17737;52.586;13.284;2023-03-23T09:16:37;100055.47;;;11.46;85.41
31082;BME280;17737;52.586;13.284;2023-03-23T09:19:09;100041.31;;;11.58;84.90
31082;BME280;17737;52.586;13.284;2023-03-23T09:21:40;100039.25;;;11.60;85.03
31082;BME280;17737;52.586;13.284;2023-03-23T09:24:13;100039.63;;;11.72;84.82
31082;BME280;17737;52.586;13.284;2023-03-23T09:26:45;100035.91;;;11.73;83.92
31082;BME280;17737;52.586;13.284;2023-03-23T09:29:20;100034.72;;;11.82;84.02
31082;BME280;17737;52.586;13.284;2023-03-23T09:31:50;100033.94;;;12.09;83.54
31082;BME280;17737;52.586;13.284;2023-03-23T09:34:22;100036.75;;;12.22;82.66
31082;BME280;17737;52.586;13.284;2023-03-23T09:36:53;100032.16;;;12.23;82.13
31082;BME280;17737;52.586;13.284;2023-03-23T09:39:27;100041.84;;;12.38;81.62
31082;BME280;17737;52.586;13.284;2023-03-23T09:42:16;100045.16;;;12.34;81.12
31082;BME280;17737;52.586;13.284;2023-03-23T09:45:06;100041.84;;;12.38;80.35
31082;BME280;17737;52.586;13.284;2023-03-23T09:48:07;100039.44;;;12.50;79.92
31082;BME280;17737;52.586;13.284;2023-03-23T09:51:02;100044.66;;;12.51;80.40
31082;BME280;17737;52.586;13.284;2023-03-23T09:53:43;100045.63;;;12.71;79.12
31082;BME280;17737;52.586;13.284;2023-03-23T09:56:20;100057.41;;;12.64;78.61
31082;BME280;17737;52.586;13.284;2023-03-23T09:58:57;100051.44;;;12.68;78.45
31082;BME280;17737;52.586;13.284;2023-03-23T10:01:40;100047.91;;;12.74;78.62
31082;BME280;17737;52.586;13.284;2023-03-23T10:04:30;100049.91;;;12.93;77.72
31082;BME280;17737;52.586;13.284;2023-03-23T10:07:12;100060.25;;;12.83;77.58
31082;BME280;17737;52.586;13.284;2023-03-23T10:09:45;100052.91;;;12.77;78.03
31082;BME280;17737;52.586;13.284;2023-03-23T10:12:24;100054.75;;;12.70;77.03
31082;BME280;17737;52.586;13.284;2023-03-23T10:15:10;100055.84;;;12.82;77.03
31082;BME280;17737;52.586;13.284;2023-03-23T10:17:47;100046.72;;;12.83;76.44
31082;BME280;17737;52.586;13.284;2023-03-23T10:20:37;100038.25;;;12.93;76.85
31082;BME280;17737;52.586;13.284;2023-03-23T10:23:39;100049.25;;;12.91;75.39
31082;BME280;17737;52.586;13.284;2023-03-23T10:26:33;100037.13;;;13.15;74.96
31082;BME280;17737;52.586;13.284;2023-03-23T10:29:18;100035.72;;;13.26;74.11
31082;BME280;17737;52.586;13.284;2023-03-23T10:31:55;100033.28;;;13.44;74.29
31082;BME280;17737;52.586;13.284;2023-03-23T10:34:31;100024.75;;;13.47;73.64
31082;BME280;17737;52.586;13.284;2023-03-23T10:37:09;100025.44;;;13.68;73.62
31082;BME280;17737;52.586;13.284;2023-03-23T10:39:51;100036.41;;;13.47;73.08
31082;BME280;17737;52.586;13.284;2023-03-23T10:42:26;100022.44;;;13.44;72.70
31082;BME280;17737;52.586;13.284;2023-03-23T10:45:00;100026.88;;;13.64;72.48
31082;BME280;17737;52.586;13.284;2023-03-23T10:47:48;100020.81;;;13.56;71.99
31082;BME280;17737;52.586;13.284;2023-03-23T10:50:28;100027.66;;;13.45;72.49
31082;BME280;17737;52.586;13.284;2023-03-23T10:53:12;100027.66;;;13.45;72.15
31082;BME280;17737;52.586;13.284;2023-03-23T10:55:46;100038.34;;;13.66;72.09
31082;BME280;17737;52.586;13.284;2023-03-23T10:58:24;100027.50;;;13.60;71.82
31082;BME280;17737;52.586;13.284;2023-03-23T11:00:59;100032.28;;;13.64;71.19
31082;BME280;17737;52.586;13.284;2023-03-23T11:03:43;100031.84;;;13.61;70.85
31082;BME280;17737;52.586;13.284;2023-03-23T11:06:20;100044.16;;;13.70;71.14
31082;BME280;17737;52.586;13.284;2023-03-23T11:08:55;100049.16;;;13.79;70.69
31082;BME280;17737;52.586;13.284;2023-03-23T11:11:37;100051.91;;;13.86;70.18
31082;BME280;17737;52.586;13.284;2023-03-23T11:14:18;100052.94;;;13.78;69.85
31082;BME280;17737;52.586;13.284;2023-03-23T11:16:58;100051.66;;;13.81;69.93
31082;BME280;17737;52.586;13.284;2023-03-23T11:19:35;100054.19;;;13.82;69.66
31082;BME280;17737;52.586;13.284;2023-03-23T11:22:08;100056.06;;;13.88;69.89
31082;BME280;17737;52.586;13.284;2023-03-23T11:24:53;100062.56;;;14.07;69.00
31082;BME280;17737;52.586;13.284;2023-03-23T11:27:33;100066.72;;;14.22;68.56
31082;BME280;17737;52.586;13.284;2023-03-23T11:30:11;100065.31;;;14.33;67.83
31082;BME280;17737;52.586;13.284;2023-03-23T11:32:54;100063.81;;;14.37;67.47
31082;BME280;17737;52.586;13.284;2023-03-23T11:35:29;100062.34;;;14.54;66.84
31082;BME280;17737;52.586;13.284;2023-03-23T11:37:59;100064.25;;;14.34;67.25
31082;BME280;17737;52.586;13.284;2023-03-23T11:40:44;100069.03;;;14.19;67.82
31082;BME280;17737;52.586;13.284;2023-03-23T11:43:21;100060.03;;;14.18;67.26
31082;BME280;17737;52.586;13.284;2023-03-23T11:46:02;100070.53;;;14.28;67.14
31082;BME280;17737;52.586;13.284;2023-03-23T11:48:45;100064.25;;;14.34;67.14
31082;BME280;17737;52.586;13.284;2023-03-23T11:51:27;100058.44;;;14.44;67.00
31082;BME280;17737;52.586;13.284;2023-03-23T11:54:12;100060.53;;;14.35;66.97
31082;BME280;17737;52.586;13.284;2023-03-23T11:56:49;100072.38;;;14.34;66.48
31082;BME280;17737;52.586;13.284;2023-03-23T11:59:28;100064.03;;;14.42;66.32
31082;BME280;17737;52.586;13.284;2023-03-23T12:02:30;100059.25;;;14.44;65.75
31082;BME280;17737;52.586;13.284;2023-03-23T12:05:30;100057.16;;;14.39;65.75
31082;BME280;17737;52.586;13.284;2023-03-23T12:08:17;100063.41;;;14.27;65.87
31082;BME280;17737;52.586;13.284;2023-03-23T12:11:07;100061.53;;;14.34;65.49
31082;BME280;17737;52.586;13.284;2023-03-23T12:13:55;100060.28;;;14.50;65.56
31082;BME280;17737;52.586;13.284;2023-03-23T12:16:52;100063.22;;;14.35;65.46
31082;BME280;17737;52.586;13.284;2023-03-23T12:19:46;100062.78;;;14.45;65.73
31082;BME280;17737;52.586;13.284;2023-03-23T12:22:42;100063.00;;;14.43;65.04
31082;BME280;17737;52.586;13.284;2023-03-23T12:32:33;100051.31;;;14.49;64.55
31082;BME280;17737;52.586;13.284;2023-03-23T12:35:30;100041.31;;;14.43;64.58
31082;BME280;17737;52.586;13.284;2023-03-23T12:38:20;100050.31;;;14.44;64.47
31082;BME280;17737;52.586;13.284;2023-03-23T12:41:05;100035.88;;;14.50;64.50
31082;BME280;17737;52.586;13.284;2023-03-23T12:43:48;100030.44;;;14.56;64.42
31082;BME280;17737;52.586;13.284;2023-03-23T12:46:44;100028.34;;;14.71;63.87
31082;BME280;17737;52.586;13.284;2023-03-23T12:49:31;100030.03;;;14.72;63.59
31082;BME280;17737;52.586;13.284;2023-03-23T12:52:04;100015.34;;;14.93;63.14
31082;BME280;17737;52.586;13.284;2023-03-23T12:54:41;100029.00;;;15.24;62.24
31082;BME280;17737;52.586;13.284;2023-03-23T12:57:20;100019.34;;;15.41;61.76
31082;BME280;17737;52.586;13.284;2023-03-23T13:00:02;100035.78;;;15.52;61.26
31082;BME280;17737;52.586;13.284;2023-03-23T13:02:40;100035.16;;;15.50;61.20
31082;BME280;17737;52.586;13.284;2023-03-23T13:08:12;100036.91;;;15.32;60.93
31082;BME280;17737;52.586;13.284;2023-03-23T13:10:45;100028.97;;;15.30;61.03
31082;BME280;17737;52.586;13.284;2023-03-23T13:13:16;100027.97;;;15.25;61.07
31082;BME280;17737;52.586;13.284;2023-03-23T13:15:54;100038.13;;;15.36;60.79
31082;BME280;17737;52.586;13.284;2023-03-23T13:18:42;100026.81;;;15.52;59.46
31082;BME280;17737;52.586;13.284;2023-03-23T13:21:19;100029.75;;;15.50;59.81
31082;BME280;17737;52.586;13.284;2023-03-23T13:23:56;100025.69;;;15.59;58.17
31082;BME280;17737;52.586;13.284;2023-03-23T13:26:26;100022.22;;;15.52;58.87
31082;BME280;17737;52.586;13.284;2023-03-23T13:28:57;100021.28;;;15.65;58.37
31082;BME280;17737;52.586;13.284;2023-03-23T13:31:28;100013.03;;;15.85;57.87